KBWD

Brownwood Regional Airport

Brownwood, Texas, USA
METAR KBWD 201515Z AUTO 16010G16KT 9SM SCT016 BKN025 OVC110 19/19 A2989 RMK AO2
Observed Flight Rules
Feb-20 @ 15:15 UTC (2 hours ago) Marginal Visual Flight Rules
Wind Visibility Clouds
160° at 10 knots
 Gusting to 16 knots
9 miles
  • Scattered at 1,600' AGL
  • Broken at 2,500' AGL
  • Overcast at 11,000' AGL
Temperatures Readings
Current 19°C / 66°F
Dewpoint 19°C / 66°F
Humidity 100%
Altimeter 29.89" Hg
Pressure 1012 hPa
Elevation 423
METAR KBWD 201515Z AUTO 16010G16KT 9SM SCT016 BKN025 OVC110 19/19 A2989 RMK AO2
Observed Flight Rules
Feb-20 @ 15:15 UTC
(2 hours ago)
MVFR
Wind Visibility
160° at 10 knots
 Gusting to 16 knots
9 miles
Clouds
  • Scattered at 1,600' AGL
  • Broken at 2,500' AGL
  • Overcast at 11,000' AGL
Temperature Dewpoint
19°C / 66°F 19°C / 66°F
Humidity Altimeter Pressure
100% 29.89" Hg 1012 hPa